sensor_id;sensor_type;location;lat;lon;timestamp;pressure;altitude;pressure_sealevel;temperature
74750;BMP280;63269;53.330;-6.288;2023-07-22T00:02:10;100750.34;;;22.50
74750;BMP280;63269;53.330;-6.288;2023-07-22T00:04:36;100740.88;;;22.49
74750;BMP280;63269;53.330;-6.288;2023-07-22T00:07:01;100738.94;;;22.49
74750;BMP280;63269;53.330;-6.288;2023-07-22T00:09:26;100738.94;;;22.49
74750;BMP280;63269;53.330;-6.288;2023-07-22T00:11:52;100730.16;;;22.49
74750;BMP280;63269;53.330;-6.288;2023-07-22T00:14:17;100730.16;;;22.49
74750;BMP280;63269;53.330;-6.288;2023-07-22T00:16:43;100721.38;;;22.48
74750;BMP280;63269;53.330;-6.288;2023-07-22T00:19:09;100725.25;;;22.47
74750;BMP280;63269;53.330;-6.288;2023-07-22T00:21:34;100719.47;;;22.49
74750;BMP280;63269;53.330;-6.288;2023-07-22T00:24:00;100719.47;;;22.49
74750;BMP280;63269;53.330;-6.288;2023-07-22T00:26:26;100704.63;;;22.48
74750;BMP280;63269;53.330;-6.288;2023-07-22T00:28:51;100701.94;;;22.48
74750;BMP280;63269;53.330;-6.288;2023-07-22T00:31:16;100689.75;;;22.47
74750;BMP280;63269;53.330;-6.288;2023-07-22T00:33:42;100689.75;;;22.47
74750;BMP280;63269;53.330;-6.288;2023-07-22T00:36:07;100690.50;;;22.47
74750;BMP280;63269;53.330;-6.288;2023-07-22T00:38:33;100686.38;;;22.46
74750;BMP280;63269;53.330;-6.288;2023-07-22T00:40:58;100681.72;;;22.47
74750;BMP280;63269;53.330;-6.288;2023-07-22T00:43:24;100681.72;;;22.47
74750;BMP280;63269;53.330;-6.288;2023-07-22T00:45:51;100680.25;;;22.46
74750;BMP280;63269;53.330;-6.288;2023-07-22T00:48:17;100677.59;;;22.46
74750;BMP280;63269;53.330;-6.288;2023-07-22T00:50:43;100669.56;;;22.46
74750;BMP280;63269;53.330;-6.288;2023-07-22T00:53:08;100669.56;;;22.46
74750;BMP280;63269;53.330;-6.288;2023-07-22T00:55:34;100662.75;;;22.44
74750;BMP280;63269;53.330;-6.288;2023-07-22T00:58:00;100662.75;;;22.44
74750;BMP280;63269;53.330;-6.288;2023-07-22T01:00:26;100661.25;;;22.43
74750;BMP280;63269;53.330;-6.288;2023-07-22T01:02:51;100650.13;;;22.45
74750;BMP280;63269;53.330;-6.288;2023-07-22T01:05:17;100653.22;;;22.43
74750;BMP280;63269;53.330;-6.288;2023-07-22T01:07:43;100653.22;;;22.43
74750;BMP280;63269;53.330;-6.288;2023-07-22T01:10:09;100640.34;;;22.42
74750;BMP280;63269;53.330;-6.288;2023-07-22T01:12:35;100631.84;;;22.43
74750;BMP280;63269;53.330;-6.288;2023-07-22T01:15:01;100631.84;;;22.43
74750;BMP280;63269;53.330;-6.288;2023-07-22T01:17:29;100631.13;;;22.43
74750;BMP280;63269;53.330;-6.288;2023-07-22T01:19:55;100618.97;;;22.42
74750;BMP280;63269;53.330;-6.288;2023-07-22T01:22:21;100615.53;;;22.41
74750;BMP280;63269;53.330;-6.288;2023-07-22T01:24:47;100609.75;;;22.43
74750;BMP280;63269;53.330;-6.288;2023-07-22T01:27:12;100607.53;;;22.41
74750;BMP280;63269;53.330;-6.288;2023-07-22T01:29:39;100601.41;;;22.41
74750;BMP280;63269;53.330;-6.288;2023-07-22T01:32:05;100590.28;;;22.42
74750;BMP280;63269;53.330;-6.288;2023-07-22T01:34:30;100590.28;;;22.42
74750;BMP280;63269;53.330;-6.288;2023-07-22T01:36:57;100572.78;;;22.41
74750;BMP280;63269;53.330;-6.288;2023-07-22T01:39:22;100572.78;;;22.41
74750;BMP280;63269;53.330;-6.288;2023-07-22T01:41:47;100568.19;;;22.42
74750;BMP280;63269;53.330;-6.288;2023-07-22T01:44:13;100568.19;;;22.42
74750;BMP280;63269;53.330;-6.288;2023-07-22T01:46:39;100565.22;;;22.40
74750;BMP280;63269;53.330;-6.288;2023-07-22T01:49:07;100556.75;;;22.41
74750;BMP280;63269;53.330;-6.288;2023-07-22T01:51:35;100556.75;;;22.41
74750;BMP280;63269;53.330;-6.288;2023-07-22T01:54:03;100555.25;;;22.40
74750;BMP280;63269;53.330;-6.288;2023-07-22T01:56:29;100547.22;;;22.40
74750;BMP280;63269;53.330;-6.288;2023-07-22T01:58:54;100541.91;;;22.40
74750;BMP280;63269;53.330;-6.288;2023-07-22T02:01:20;100543.06;;;22.39
74750;BMP280;63269;53.330;-6.288;2023-07-22T02:03:45;100542.34;;;22.39
74750;BMP280;63269;53.330;-6.288;2023-07-22T02:06:11;100535.81;;;22.40
74750;BMP280;63269;53.330;-6.288;2023-07-22T02:08:37;100535.81;;;22.40
74750;BMP280;63269;53.330;-6.288;2023-07-22T02:11:07;100519.00;;;22.39
74750;BMP280;63269;53.330;-6.288;2023-07-22T02:13:34;100521.69;;;22.39
74750;BMP280;63269;53.330;-6.288;2023-07-22T02:16:01;100521.69;;;22.39
74750;BMP280;63269;53.330;-6.288;2023-07-22T02:18:26;100502.25;;;22.39
74750;BMP280;63269;53.330;-6.288;2023-07-22T02:20:52;100502.25;;;22.39
74750;BMP280;63269;53.330;-6.288;2023-07-22T02:23:18;100501.50;;;22.38
74750;BMP280;63269;53.330;-6.288;2023-07-22T02:25:44;100501.22;;;22.36
74750;BMP280;63269;53.330;-6.288;2023-07-22T02:28:09;100500.47;;;22.36
74750;BMP280;63269;53.330;-6.288;2023-07-22T02:30:36;100500.03;;;22.37
74750;BMP280;63269;53.330;-6.288;2023-07-22T02:33:02;100493.94;;;22.37
74750;BMP280;63269;53.330;-6.288;2023-07-22T02:35:28;100489.78;;;22.36
74750;BMP280;63269;53.330;-6.288;2023-07-22T02:37:53;100482.81;;;22.38
74750;BMP280;63269;53.330;-6.288;2023-07-22T02:40:19;100482.81;;;22.38
74750;BMP280;63269;53.330;-6.288;2023-07-22T02:42:44;100475.41;;;22.33
74750;BMP280;63269;53.330;-6.288;2023-07-22T02:45:10;100469.59;;;22.35
74750;BMP280;63269;53.330;-6.288;2023-07-22T02:47:35;100463.06;;;22.36
74750;BMP280;63269;53.330;-6.288;2023-07-22T02:50:01;100462.31;;;22.35
74750;BMP280;63269;53.330;-6.288;2023-07-22T02:52:27;100456.22;;;22.35
74750;BMP280;63269;53.330;-6.288;2023-07-22T02:55:14;100456.81;;;22.39
74750;BMP280;63269;53.330;-6.288;2023-07-22T02:57:41;100457.44;;;22.34
74750;BMP280;63269;53.330;-6.288;2023-07-22T03:00:08;100457.44;;;22.34
74750;BMP280;63269;53.330;-6.288;2023-07-22T03:02:37;100448.69;;;22.33
74750;BMP280;63269;53.330;-6.288;2023-07-22T03:05:07;100432.91;;;22.35
74750;BMP280;63269;53.330;-6.288;2023-07-22T03:07:42;100442.88;;;22.35
74750;BMP280;63269;53.330;-6.288;2023-07-22T03:10:08;100442.59;;;22.33
74750;BMP280;63269;53.330;-6.288;2023-07-22T03:12:35;100442.59;;;22.33
74750;BMP280;63269;53.330;-6.288;2023-07-22T03:15:00;100437.69;;;22.31
74750;BMP280;63269;53.330;-6.288;2023-07-22T03:17:26;100429.22;;;22.33
74750;BMP280;63269;53.330;-6.288;2023-07-22T03:19:52;100429.22;;;22.33
74750;BMP280;63269;53.330;-6.288;2023-07-22T03:22:17;100420.91;;;22.31
74750;BMP280;63269;53.330;-6.288;2023-07-22T03:24:44;100425.09;;;22.32
74750;BMP280;63269;53.330;-6.288;2023-07-22T03:27:10;100425.09;;;22.32
74750;BMP280;63269;53.330;-6.288;2023-07-22T03:29:35;100420.91;;;22.31
74750;BMP280;63269;53.330;-6.288;2023-07-22T03:32:01;100420.91;;;22.31
74750;BMP280;63269;53.330;-6.288;2023-07-22T03:34:27;100422.13;;;22.30
74750;BMP280;63269;53.330;-6.288;2023-07-22T03:36:53;100420.22;;;22.30
74750;BMP280;63269;53.330;-6.288;2023-07-22T03:39:19;100420.22;;;22.30
74750;BMP280;63269;53.330;-6.288;2023-07-22T03:41:44;100409.19;;;22.28
74750;BMP280;63269;53.330;-6.288;2023-07-22T03:44:09;100411.88;;;22.28
74750;BMP280;63269;53.330;-6.288;2023-07-22T03:46:35;100413.81;;;22.28
74750;BMP280;63269;53.330;-6.288;2023-07-22T03:49:00;100408.47;;;22.28
74750;BMP280;63269;53.330;-6.288;2023-07-22T03:51:26;100400.44;;;22.28
74750;BMP280;63269;53.330;-6.288;2023-07-22T03:53:51;100398.50;;;22.28
74750;BMP280;63269;53.330;-6.288;2023-07-22T03:56:17;100398.50;;;22.28
74750;BMP280;63269;53.330;-6.288;2023-07-22T03:58:42;100391.69;;;22.27
74750;BMP280;63269;53.330;-6.288;2023-07-22T04:01:10;100389.75;;;22.28
74750;BMP280;63269;53.330;-6.288;2023-07-22T04:03:36;100389.75;;;22.28
74750;BMP280;63269;53.330;-6.288;2023-07-22T04:06:01;100391.69;;;22.27
74750;BMP280;63269;53.330;-6.288;2023-07-22T04:08:27;100391.69;;;22.27
74750;BMP280;63269;53.330;-6.288;2023-07-22T04:10:56;100389.47;;;22.26
74750;BMP280;63269;53.330;-6.288;2023-07-22T04:13:24;100384.88;;;22.26
74750;BMP280;63269;53.330;-6.288;2023-07-22T04:15:50;100376.56;;;22.24
74750;BMP280;63269;53.330;-6.288;2023-07-22T04:18:17;100366.19;;;22.26
74750;BMP280;63269;53.330;-6.288;2023-07-22T04:20:43;100366.19;;;22.26
74750;BMP280;63269;53.330;-6.288;2023-07-22T04:23:08;100365.88;;;22.24
74750;BMP280;63269;53.330;-6.288;2023-07-22T04:25:42;100362.47;;;22.23
74750;BMP280;63269;53.330;-6.288;2023-07-22T04:28:07;100347.94;;;22.25
74750;BMP280;63269;53.330;-6.288;2023-07-22T04:30:34;100347.94;;;22.25
74750;BMP280;63269;53.330;-6.288;2023-07-22T04:33:00;100350.59;;;22.25
74750;BMP280;63269;53.330;-6.288;2023-07-22T04:35:25;100350.59;;;22.25
74750;BMP280;63269;53.330;-6.288;2023-07-22T04:37:50;100325.06;;;22.23
74750;BMP280;63269;53.330;-6.288;2023-07-22T04:40:16;100325.06;;;22.23
74750;BMP280;63269;53.330;-6.288;2023-07-22T04:42:44;100326.56;;;22.25
74750;BMP280;63269;53.330;-6.288;2023-07-22T04:45:09;100315.59;;;22.22
74750;BMP280;63269;53.330;-6.288;2023-07-22T04:47:36;100316.31;;;22.23
74750;BMP280;63269;53.330;-6.288;2023-07-22T04:50:02;100316.31;;;22.23
74750;BMP280;63269;53.330;-6.288;2023-07-22T04:52:28;100308.75;;;22.21
74750;BMP280;63269;53.330;-6.288;2023-07-22T04:54:53;100307.56;;;22.22
74750;BMP280;63269;53.330;-6.288;2023-07-22T04:57:20;100307.56;;;22.22
74750;BMP280;63269;53.330;-6.288;2023-07-22T04:59:46;100309.94;;;22.20
74750;BMP280;63269;53.330;-6.288;2023-07-22T05:02:12;100298.81;;;22.22
74750;BMP280;63269;53.330;-6.288;2023-07-22T05:04:37;100302.66;;;22.21
74750;BMP280;63269;53.330;-6.288;2023-07-22T05:07:03;100304.16;;;22.22
74750;BMP280;63269;53.330;-6.288;2023-07-22T05:09:28;100301.50;;;22.22
74750;BMP280;63269;53.330;-6.288;2023-07-22T05:11:53;100302.66;;;22.21
74750;BMP280;63269;53.330;-6.288;2023-07-22T05:14:19;100297.78;;;22.19
74750;BMP280;63269;53.330;-6.288;2023-07-22T05:16:45;100294.66;;;22.21
74750;BMP280;63269;53.330;-6.288;2023-07-22T05:19:10;100298.06;;;22.21
74750;BMP280;63269;53.330;-6.288;2023-07-22T05:21:36;100291.25;;;22.20
74750;BMP280;63269;53.330;-6.288;2023-07-22T05:24:01;100289.03;;;22.19
74750;BMP280;63269;53.330;-6.288;2023-07-22T05:26:27;100292.44;;;22.19
74750;BMP280;63269;53.330;-6.288;2023-07-22T05:28:52;100289.75;;;22.19
74750;BMP280;63269;53.330;-6.288;2023-07-22T05:31:18;100284.41;;;22.19
74750;BMP280;63269;53.330;-6.288;2023-07-22T05:33:43;100279.06;;;22.19
74750;BMP280;63269;53.330;-6.288;2023-07-22T05:36:09;100279.53;;;22.18
74750;BMP280;63269;53.330;-6.288;2023-07-22T05:38:34;100278.34;;;22.19
74750;BMP280;63269;53.330;-6.288;2023-07-22T05:41:00;100267.66;;;22.19
74750;BMP280;63269;53.330;-6.288;2023-07-22T05:43:25;100274.22;;;22.18
74750;BMP280;63269;53.330;-6.288;2023-07-22T05:45:51;100271.53;;;22.18
74750;BMP280;63269;53.330;-6.288;2023-07-22T05:48:16;100266.94;;;22.18
74750;BMP280;63269;53.330;-6.288;2023-07-22T05:50:42;100265.00;;;22.19
74750;BMP280;63269;53.330;-6.288;2023-07-22T05:53:07;100260.13;;;22.17
74750;BMP280;63269;53.330;-6.288;2023-07-22T05:55:33;100248.66;;;22.17
74750;BMP280;63269;53.330;-6.288;2023-07-22T05:57:58;100250.16;;;22.18
74750;BMP280;63269;53.330;-6.288;2023-07-22T06:00:25;100241.41;;;22.17
74750;BMP280;63269;53.330;-6.288;2023-07-22T06:02:50;100241.41;;;22.17
74750;BMP280;63269;53.330;-6.288;2023-07-22T06:05:16;100229.97;;;22.17
74750;BMP280;63269;53.330;-6.288;2023-07-22T06:07:41;100229.97;;;22.17
74750;BMP280;63269;53.330;-6.288;2023-07-22T06:10:07;100239.91;;;22.16
74750;BMP280;63269;53.330;-6.288;2023-07-22T06:12:34;100234.59;;;22.16
74750;BMP280;63269;53.330;-6.288;2023-07-22T06:15:00;100234.59;;;22.16
74750;BMP280;63269;53.330;-6.288;2023-07-22T06:17:25;100233.41;;;22.17
74750;BMP280;63269;53.330;-6.288;2023-07-22T06:19:50;100233.41;;;22.17
74750;BMP280;63269;53.330;-6.288;2023-07-22T06:22:16;100231.91;;;22.16
74750;BMP280;63269;53.330;-6.288;2023-07-22T06:24:41;100225.81;;;22.16
74750;BMP280;63269;53.330;-6.288;2023-07-22T06:27:06;100225.81;;;22.16
74750;BMP280;63269;53.330;-6.288;2023-07-22T06:29:32;100221.97;;;22.17
74750;BMP280;63269;53.330;-6.288;2023-07-22T06:31:57;100221.97;;;22.17
74750;BMP280;63269;53.330;-6.288;2023-07-22T06:34:23;100225.81;;;22.16
74750;BMP280;63269;53.330;-6.288;2023-07-22T06:36:48;100227.75;;;22.15
74750;BMP280;63269;53.330;-6.288;2023-07-22T06:39:13;100227.75;;;22.15
74750;BMP280;63269;53.330;-6.288;2023-07-22T06:41:39;100228.47;;;22.16
74750;BMP280;63269;53.330;-6.288;2023-07-22T06:44:04;100228.47;;;22.16
74750;BMP280;63269;53.330;-6.288;2023-07-22T06:46:30;100224.34;;;22.15
74750;BMP280;63269;53.330;-6.288;2023-07-22T06:48:56;100221.22;;;22.16
74750;BMP280;63269;53.330;-6.288;2023-07-22T06:51:21;100221.22;;;22.16
74750;BMP280;63269;53.330;-6.288;2023-07-22T06:53:46;100217.53;;;22.14
74750;BMP280;63269;53.330;-6.288;2023-07-22T06:56:12;100215.13;;;22.16
74750;BMP280;63269;53.330;-6.288;2023-07-22T06:58:37;100215.13;;;22.16
74750;BMP280;63269;53.330;-6.288;2023-07-22T07:01:02;100213.66;;;22.15
74750;BMP280;63269;53.330;-6.288;2023-07-22T07:03:28;100220.06;;;22.17
74750;BMP280;63269;53.330;-6.288;2023-07-22T07:05:54;100215.88;;;22.16
74750;BMP280;63269;53.330;-6.288;2023-07-22T07:08:20;100215.88;;;22.16
74750;BMP280;63269;53.330;-6.288;2023-07-22T07:10:45;100212.94;;;22.14
74750;BMP280;63269;53.330;-6.288;2023-07-22T07:13:11;100205.19;;;22.16
74750;BMP280;63269;53.330;-6.288;2023-07-22T07:15:36;100205.19;;;22.16
74750;BMP280;63269;53.330;-6.288;2023-07-22T07:18:02;100209.03;;;22.15
74750;BMP280;63269;53.330;-6.288;2023-07-22T07:20:27;100199.09;;;22.16
74750;BMP280;63269;53.330;-6.288;2023-07-22T07:22:52;100199.09;;;22.16
74750;BMP280;63269;53.330;-6.288;2023-07-22T07:25:18;100197.91;;;22.17
74750;BMP280;63269;53.330;-6.288;2023-07-22T07:27:43;100197.91;;;22.17
74750;BMP280;63269;53.330;-6.288;2023-07-22T07:30:09;100189.16;;;22.16
74750;BMP280;63269;53.330;-6.288;2023-07-22T07:32:35;100190.66;;;22.17
74750;BMP280;63269;53.330;-6.288;2023-07-22T07:35:01;100190.66;;;22.17
74750;BMP280;63269;53.330;-6.288;2023-07-22T07:37:26;100181.91;;;22.17
74750;BMP280;63269;53.330;-6.288;2023-07-22T07:39:52;100181.91;;;22.17
74750;BMP280;63269;53.330;-6.288;2023-07-22T07:42:17;100180.41;;;22.16
74750;BMP280;63269;53.330;-6.288;2023-07-22T07:44:43;100172.38;;;22.16
74750;BMP280;63269;53.330;-6.288;2023-07-22T07:47:09;100173.16;;;22.16
74750;BMP280;63269;53.330;-6.288;2023-07-22T07:49:34;100168.53;;;22.17
74750;BMP280;63269;53.330;-6.288;2023-07-22T07:51:59;100168.53;;;22.17
74750;BMP280;63269;53.330;-6.288;2023-07-22T07:54:25;100169.28;;;22.17
74750;BMP280;63269;53.330;-6.288;2023-07-22T07:56:50;100169.28;;;22.17
74750;BMP280;63269;53.330;-6.288;2023-07-22T07:59:15;100175.38;;;22.18
74750;BMP280;63269;53.330;-6.288;2023-07-22T08:01:41;100172.69;;;22.18
74750;BMP280;63269;53.330;-6.288;2023-07-22T08:04:10;100170.75;;;22.18
74750;BMP280;63269;53.330;-6.288;2023-07-22T08:06:35;100180.72;;;22.18
74750;BMP280;63269;53.330;-6.288;2023-07-22T08:09:03;100174.16;;;22.19
74750;BMP280;63269;53.330;-6.288;2023-07-22T08:11:30;100163.47;;;22.19
74750;BMP280;63269;53.330;-6.288;2023-07-22T08:13:55;100160.81;;;22.19
74750;BMP280;63269;53.330;-6.288;2023-07-22T08:16:21;100160.81;;;22.19
74750;BMP280;63269;53.330;-6.288;2023-07-22T08:18:47;100162.00;;;22.18
74750;BMP280;63269;53.330;-6.288;2023-07-22T08:21:12;100148.66;;;22.18
74750;BMP280;63269;53.330;-6.288;2023-07-22T08:23:38;100156.19;;;22.19
74750;BMP280;63269;53.330;-6.288;2023-07-22T08:26:04;100144.06;;;22.18
74750;BMP280;63269;53.330;-6.288;2023-07-22T08:28:31;100142.13;;;22.19
74750;BMP280;63269;53.330;-6.288;2023-07-22T08:30:56;100143.56;;;22.20
74750;BMP280;63269;53.330;-6.288;2023-07-22T08:33:23;100147.00;;;22.20
74750;BMP280;63269;53.330;-6.288;2023-07-22T08:35:50;100144.34;;;22.20
74750;BMP280;63269;53.330;-6.288;2023-07-22T08:38:16;100137.78;;;22.21
74750;BMP280;63269;53.330;-6.288;2023-07-22T08:40:41;100136.31;;;22.20
74750;BMP280;63269;53.330;-6.288;2023-07-22T08:43:09;100138.53;;;22.22
74750;BMP280;63269;53.330;-6.288;2023-07-22T08:45:38;100127.84;;;22.22
74750;BMP280;63269;53.330;-6.288;2023-07-22T08:48:08;100133.19;;;22.22
74750;BMP280;63269;53.330;-6.288;2023-07-22T08:50:42;100133.19;;;22.22
74750;BMP280;63269;53.330;-6.288;2023-07-22T08:53:10;100119.84;;;22.22
74750;BMP280;63269;53.330;-6.288;2023-07-22T08:55:36;100129.31;;;22.23
74750;BMP280;63269;53.330;-6.288;2023-07-22T08:58:07;100121.31;;;22.23
74750;BMP280;63269;53.330;-6.288;2023-07-22T09:00:33;100114.03;;;22.23
74750;BMP280;63269;53.330;-6.288;2023-07-22T09:02:59;100124.25;;;22.25
74750;BMP280;63269;53.330;-6.288;2023-07-22T09:05:25;100116.50;;;22.27
74750;BMP280;63269;53.330;-6.288;2023-07-22T09:07:52;100112.66;;;22.28
74750;BMP280;63269;53.330;-6.288;2023-07-22T09:10:18;100109.97;;;22.28
74750;BMP280;63269;53.330;-6.288;2023-07-22T09:12:44;100109.97;;;22.28
74750;BMP280;63269;53.330;-6.288;2023-07-22T09:15:12;100110.72;;;22.29
74750;BMP280;63269;53.330;-6.288;2023-07-22T09:17:40;100109.81;;;22.32
74750;BMP280;63269;53.330;-6.288;2023-07-22T09:20:06;100110.53;;;22.32
74750;BMP280;63269;53.330;-6.288;2023-07-22T09:22:33;100105.94;;;22.33
74750;BMP280;63269;53.330;-6.288;2023-07-22T09:27:44;100099.13;;;22.32
74750;BMP280;63269;53.330;-6.288;2023-07-22T09:30:29;100099.13;;;22.32
74750;BMP280;63269;53.330;-6.288;2023-07-22T09:32:57;100098.38;;;22.31
74750;BMP280;63269;53.330;-6.288;2023-07-22T09:38:07;100086.50;;;22.32
74750;BMP280;63269;53.330;-6.288;2023-07-22T09:40:33;100093.31;;;22.33
74750;BMP280;63269;53.330;-6.288;2023-07-22T09:43:01;100093.31;;;22.33
74750;BMP280;63269;53.330;-6.288;2023-07-22T09:45:29;100099.84;;;22.32
74750;BMP280;63269;53.330;-6.288;2023-07-22T09:47:56;100097.50;;;22.34
74750;BMP280;63269;53.330;-6.288;2023-07-22T09:50:23;100100.16;;;22.34
74750;BMP280;63269;53.330;-6.288;2023-07-22T09:52:56;100097.00;;;22.36
74750;BMP280;63269;53.330;-6.288;2023-07-22T09:55:30;100097.00;;;22.36
74750;BMP280;63269;53.330;-6.288;2023-07-22T09:57:57;100095.53;;;22.35
74750;BMP280;63269;53.330;-6.288;2023-07-22T10:00:24;100095.53;;;22.35
74750;BMP280;63269;53.330;-6.288;2023-07-22T10:02:56;100088.25;;;22.35
74750;BMP280;63269;53.330;-6.288;2023-07-22T10:05:22;100092.41;;;22.36
74750;BMP280;63269;53.330;-6.288;2023-07-22T10:07:49;100092.41;;;22.36
74750;BMP280;63269;53.330;-6.288;2023-07-22T10:10:18;100087.78;;;22.37
74750;BMP280;63269;53.330;-6.288;2023-07-22T10:12:44;100087.78;;;22.37
74750;BMP280;63269;53.330;-6.288;2023-07-22T10:15:12;100092.41;;;22.36
74750;BMP280;63269;53.330;-6.288;2023-07-22T10:17:39;100100.69;;;22.38
74750;BMP280;63269;53.330;-6.288;2023-07-22T10:20:05;100100.69;;;22.38
74750;BMP280;63269;53.330;-6.288;2023-07-22T10:22:36;100086.59;;;22.38
74750;BMP280;63269;53.330;-6.288;2023-07-22T10:25:06;100093.41;;;22.39
74750;BMP280;63269;53.330;-6.288;2023-07-22T10:27:34;100093.41;;;22.39
74750;BMP280;63269;53.330;-6.288;2023-07-22T10:30:00;100093.88;;;22.37
74750;BMP280;63269;53.330;-6.288;2023-07-22T10:32:34;100095.34;;;22.38
74750;BMP280;63269;53.330;-6.288;2023-07-22T10:35:00;100102.91;;;22.40
74750;BMP280;63269;53.330;-6.288;2023-07-22T10:37:30;100090.28;;;22.40
74750;BMP280;63269;53.330;-6.288;2023-07-22T10:40:26;100090.28;;;22.40
74750;BMP280;63269;53.330;-6.288;2023-07-22T10:42:57;100088.34;;;22.41
74750;BMP280;63269;53.330;-6.288;2023-07-22T10:45:33;100088.34;;;22.41
74750;BMP280;63269;53.330;-6.288;2023-07-22T10:48:05;100080.88;;;22.45
74750;BMP280;63269;53.330;-6.288;2023-07-22T10:53:04;100080.25;;;22.50
74750;BMP280;63269;53.330;-6.288;2023-07-22T10:55:29;100080.25;;;22.50
74750;BMP280;63269;53.330;-6.288;2023-07-22T10:57:55;100078.78;;;22.49
74750;BMP280;63269;53.330;-6.288;2023-07-22T11:00:21;100075.63;;;22.51
74750;BMP280;63269;53.330;-6.288;2023-07-22T11:03:09;100075.94;;;22.53
74750;BMP280;63269;53.330;-6.288;2023-07-22T11:05:53;100080.34;;;22.56
74750;BMP280;63269;53.330;-6.288;2023-07-22T11:08:40;100080.34;;;22.56
74750;BMP280;63269;53.330;-6.288;2023-07-22T11:11:05;100069.38;;;22.54
74750;BMP280;63269;53.330;-6.288;2023-07-22T11:13:37;100069.38;;;22.54
74750;BMP280;63269;53.330;-6.288;2023-07-22T11:16:03;100072.81;;;22.54
74750;BMP280;63269;53.330;-6.288;2023-07-22T11:18:39;100072.03;;;22.54
74750;BMP280;63269;53.330;-6.288;2023-07-22T11:21:12;100068.16;;;22.55
74750;BMP280;63269;53.330;-6.288;2023-07-22T11:23:37;100063.53;;;22.55
74750;BMP280;63269;53.330;-6.288;2023-07-22T11:26:04;100054.34;;;22.56
74750;BMP280;63269;53.330;-6.288;2023-07-22T11:28:31;100054.34;;;22.56
74750;BMP280;63269;53.330;-6.288;2023-07-22T11:30:56;100049.47;;;22.55
74750;BMP280;63269;53.330;-6.288;2023-07-22T11:33:24;100036.09;;;22.55
74750;BMP280;63269;53.330;-6.288;2023-07-22T11:35:49;100046.34;;;22.56
74750;BMP280;63269;53.330;-6.288;2023-07-22T11:38:14;100046.34;;;22.56
74750;BMP280;63269;53.330;-6.288;2023-07-22T11:40:41;100034.16;;;22.55
74750;BMP280;63269;53.330;-6.288;2023-07-22T11:43:06;100034.91;;;22.56
74750;BMP280;63269;53.330;-6.288;2023-07-22T11:45:32;100033.69;;;22.57
74750;BMP280;63269;53.330;-6.288;2023-07-22T11:47:58;100033.69;;;22.57
74750;BMP280;63269;53.330;-6.288;2023-07-22T11:50:33;100029.09;;;22.57
74750;BMP280;63269;53.330;-6.288;2023-07-22T11:52:59;100023.75;;;22.57
74750;BMP280;63269;53.330;-6.288;2023-07-22T11:55:24;100023.75;;;22.57
74750;BMP280;63269;53.330;-6.288;2023-07-22T11:57:53;100024.94;;;22.56
74750;BMP280;63269;53.330;-6.288;2023-07-22T12:00:19;100020.34;;;22.57
74750;BMP280;63269;53.330;-6.288;2023-07-22T12:02:45;100014.25;;;22.56
74750;BMP280;63269;53.330;-6.288;2023-07-22T12:05:10;100009.19;;;22.58
74750;BMP280;63269;53.330;-6.288;2023-07-22T12:07:38;100009.19;;;22.58
74750;BMP280;63269;53.330;-6.288;2023-07-22T12:10:07;99997.03;;;22.57
74750;BMP280;63269;53.330;-6.288;2023-07-22T12:12:43;99987.06;;;22.58
74750;BMP280;63269;53.330;-6.288;2023-07-22T12:15:20;99985.59;;;22.57
74750;BMP280;63269;53.330;-6.288;2023-07-22T12:18:15;99983.19;;;22.59
74750;BMP280;63269;53.330;-6.288;2023-07-22T12:20:40;99989.75;;;22.58
74750;BMP280;63269;53.330;-6.288;2023-07-22T12:23:06;99986.34;;;22.57
74750;BMP280;63269;53.330;-6.288;2023-07-22T12:25:32;99983.69;;;22.57
74750;BMP280;63269;53.330;-6.288;2023-07-22T12:27:57;99986.59;;;22.59
74750;BMP280;63269;53.330;-6.288;2023-07-22T12:30:22;99983.19;;;22.59
74750;BMP280;63269;53.330;-6.288;2023-07-22T12:32:49;99980.53;;;22.59
74750;BMP280;63269;53.330;-6.288;2023-07-22T12:35:14;99979.34;;;22.60
74750;BMP280;63269;53.330;-6.288;2023-07-22T12:37:40;99975.16;;;22.59
74750;BMP280;63269;53.330;-6.288;2023-07-22T12:40:05;99975.16;;;22.59
74750;BMP280;63269;53.330;-6.288;2023-07-22T12:42:34;99975.91;;;22.59
74750;BMP280;63269;53.330;-6.288;2023-07-22T12:44:59;99975.91;;;22.59
74750;BMP280;63269;53.330;-6.288;2023-07-22T12:47:25;99973.22;;;22.59
74750;BMP280;63269;53.330;-6.288;2023-07-22T12:49:50;99974.00;;;22.60
74750;BMP280;63269;53.330;-6.288;2023-07-22T12:52:16;99974.00;;;22.60
74750;BMP280;63269;53.330;-6.288;2023-07-22T12:54:41;99966.44;;;22.58
74750;BMP280;63269;53.330;-6.288;2023-07-22T12:57:06;99967.16;;;22.59
74750;BMP280;63269;53.330;-6.288;2023-07-22T12:59:32;99959.13;;;22.59
74750;BMP280;63269;53.330;-6.288;2023-07-22T13:01:57;99956.47;;;22.59
74750;BMP280;63269;53.330;-6.288;2023-07-22T13:04:23;99951.84;;;22.59
74750;BMP280;63269;53.330;-6.288;2023-07-22T13:06:52;99951.84;;;22.59
74750;BMP280;63269;53.330;-6.288;2023-07-22T13:09:18;99944.13;;;22.61
74750;BMP280;63269;53.330;-6.288;2023-07-22T13:11:44;99939.50;;;22.62
74750;BMP280;63269;53.330;-6.288;2023-07-22T13:14:09;99943.66;;;22.63
74750;BMP280;63269;53.330;-6.288;2023-07-22T13:16:35;99930.28;;;22.63
74750;BMP280;63269;53.330;-6.288;2023-07-22T13:19:00;99926.44;;;22.64
74750;BMP280;63269;53.330;-6.288;2023-07-22T13:21:28;99932.50;;;22.64
74750;BMP280;63269;53.330;-6.288;2023-07-22T13:23:54;99925.22;;;22.65
74750;BMP280;63269;53.330;-6.288;2023-07-22T13:26:19;99921.31;;;22.66
74750;BMP280;63269;53.330;-6.288;2023-07-22T13:28:44;99919.88;;;22.65
74750;BMP280;63269;53.330;-6.288;2023-07-22T13:31:10;99919.38;;;22.67
74750;BMP280;63269;53.330;-6.288;2023-07-22T13:33:35;99916.72;;;22.67
74750;BMP280;63269;53.330;-6.288;2023-07-22T13:36:00;99913.31;;;22.66
74750;BMP280;63269;53.330;-6.288;2023-07-22T13:38:26;99918.66;;;22.66
74750;BMP280;63269;53.330;-6.288;2023-07-22T13:40:51;99914.03;;;22.67
74750;BMP280;63269;53.330;-6.288;2023-07-22T13:43:17;99912.84;;;22.68
74750;BMP280;63269;53.330;-6.288;2023-07-22T13:45:42;99908.22;;;22.68
74750;BMP280;63269;53.330;-6.288;2023-07-22T13:48:08;99900.22;;;22.68
74750;BMP280;63269;53.330;-6.288;2023-07-22T13:50:33;99910.00;;;22.71
74750;BMP280;63269;53.330;-6.288;2023-07-22T13:52:58;99902.69;;;22.72